sensor_id;sensor_type;location;lat;lon;timestamp;P1;durP1;ratioP1;P2;durP2;ratioP2
39728;SDS011;25402;42.004;23.088;2022-07-09T00:00:06;14.25;;;3.97;;
39728;SDS011;25402;42.004;23.088;2022-07-09T00:02:33;6.00;;;4.00;;
39728;SDS011;25402;42.004;23.088;2022-07-09T00:05:00;6.10;;;3.88;;
39728;SDS011;25402;42.004;23.088;2022-07-09T00:07:26;6.45;;;4.10;;
39728;SDS011;25402;42.004;23.088;2022-07-09T00:09:52;10.38;;;4.20;;
39728;SDS011;25402;42.004;23.088;2022-07-09T00:12:19;14.80;;;4.97;;
39728;SDS011;25402;42.004;23.088;2022-07-09T00:14:45;6.13;;;4.32;;
39728;SDS011;25402;42.004;23.088;2022-07-09T00:17:13;6.57;;;4.43;;
39728;SDS011;25402;42.004;23.088;2022-07-09T00:19:39;10.02;;;4.57;;
39728;SDS011;25402;42.004;23.088;2022-07-09T00:22:06;8.98;;;4.65;;
39728;SDS011;25402;42.004;23.088;2022-07-09T00:24:32;7.95;;;5.13;;
39728;SDS011;25402;42.004;23.088;2022-07-09T00:26:58;6.88;;;5.15;;
39728;SDS011;25402;42.004;23.088;2022-07-09T00:29:25;8.38;;;5.10;;
39728;SDS011;25402;42.004;23.088;2022-07-09T00:31:51;9.70;;;4.82;;
39728;SDS011;25402;42.004;23.088;2022-07-09T00:34:18;7.13;;;5.43;;
39728;SDS011;25402;42.004;23.088;2022-07-09T00:36:45;10.50;;;5.78;;
39728;SDS011;25402;42.004;23.088;2022-07-09T00:39:11;9.55;;;5.50;;
39728;SDS011;25402;42.004;23.088;2022-07-09T00:41:38;7.45;;;5.28;;
39728;SDS011;25402;42.004;23.088;2022-07-09T00:44:04;9.77;;;4.93;;
39728;SDS011;25402;42.004;23.088;2022-07-09T00:46:30;5.82;;;4.47;;
39728;SDS011;25402;42.004;23.088;2022-07-09T00:48:57;7.47;;;4.68;;
39728;SDS011;25402;42.004;23.088;2022-07-09T00:51:29;6.10;;;4.50;;
39728;SDS011;25402;42.004;23.088;2022-07-09T00:53:56;8.18;;;4.80;;
39728;SDS011;25402;42.004;23.088;2022-07-09T00:56:23;7.82;;;4.25;;
39728;SDS011;25402;42.004;23.088;2022-07-09T00:58:50;7.85;;;4.00;;
39728;SDS011;25402;42.004;23.088;2022-07-09T01:01:17;8.07;;;3.90;;
39728;SDS011;25402;42.004;23.088;2022-07-09T01:03:43;5.88;;;4.13;;
39728;SDS011;25402;42.004;23.088;2022-07-09T01:06:10;7.93;;;4.22;;
39728;SDS011;25402;42.004;23.088;2022-07-09T01:08:37;5.95;;;3.95;;
39728;SDS011;25402;42.004;23.088;2022-07-09T01:11:03;7.63;;;4.10;;
39728;SDS011;25402;42.004;23.088;2022-07-09T01:13:30;8.18;;;4.47;;
39728;SDS011;25402;42.004;23.088;2022-07-09T01:15:56;7.90;;;4.28;;
39728;SDS011;25402;42.004;23.088;2022-07-09T01:18:23;6.13;;;4.28;;
39728;SDS011;25402;42.004;23.088;2022-07-09T01:20:51;7.78;;;4.93;;
39728;SDS011;25402;42.004;23.088;2022-07-09T01:23:17;8.25;;;4.60;;
39728;SDS011;25402;42.004;23.088;2022-07-09T01:25:44;8.73;;;4.70;;
39728;SDS011;25402;42.004;23.088;2022-07-09T01:28:11;6.13;;;4.57;;
39728;SDS011;25402;42.004;23.088;2022-07-09T01:30:39;7.90;;;4.43;;
39728;SDS011;25402;42.004;23.088;2022-07-09T01:33:06;7.60;;;4.32;;
39728;SDS011;25402;42.004;23.088;2022-07-09T01:35:33;9.68;;;4.40;;
39728;SDS011;25402;42.004;23.088;2022-07-09T01:38:00;5.18;;;3.80;;
39728;SDS011;25402;42.004;23.088;2022-07-09T01:40:26;4.93;;;3.88;;
39728;SDS011;25402;42.004;23.088;2022-07-09T01:42:52;6.80;;;4.47;;
39728;SDS011;25402;42.004;23.088;2022-07-09T01:45:19;7.45;;;4.88;;
39728;SDS011;25402;42.004;23.088;2022-07-09T01:47:45;11.27;;;4.50;;
39728;SDS011;25402;42.004;23.088;2022-07-09T01:50:12;7.65;;;4.63;;
39728;SDS011;25402;42.004;23.088;2022-07-09T01:52:39;7.88;;;4.70;;
39728;SDS011;25402;42.004;23.088;2022-07-09T01:55:06;8.20;;;5.45;;
39728;SDS011;25402;42.004;23.088;2022-07-09T01:57:33;9.55;;;4.80;;
39728;SDS011;25402;42.004;23.088;2022-07-09T01:59:59;7.28;;;4.35;;
39728;SDS011;25402;42.004;23.088;2022-07-09T02:02:26;8.40;;;4.68;;
39728;SDS011;25402;42.004;23.088;2022-07-09T02:04:53;8.77;;;5.40;;
39728;SDS011;25402;42.004;23.088;2022-07-09T02:07:20;7.43;;;4.45;;
39728;SDS011;25402;42.004;23.088;2022-07-09T02:09:46;7.57;;;5.38;;
39728;SDS011;25402;42.004;23.088;2022-07-09T02:12:14;10.63;;;5.30;;
39728;SDS011;25402;42.004;23.088;2022-07-09T02:14:41;8.57;;;4.85;;
39728;SDS011;25402;42.004;23.088;2022-07-09T02:17:07;6.40;;;4.90;;
39728;SDS011;25402;42.004;23.088;2022-07-09T02:19:34;17.67;;;6.07;;
39728;SDS011;25402;42.004;23.088;2022-07-09T02:22:01;9.90;;;5.78;;
39728;SDS011;25402;42.004;23.088;2022-07-09T02:24:27;12.73;;;5.93;;
39728;SDS011;25402;42.004;23.088;2022-07-09T02:26:54;14.88;;;6.10;;
39728;SDS011;25402;42.004;23.088;2022-07-09T02:29:21;14.18;;;6.50;;
39728;SDS011;25402;42.004;23.088;2022-07-09T02:31:47;11.27;;;6.22;;
39728;SDS011;25402;42.004;23.088;2022-07-09T02:34:14;12.02;;;6.70;;
39728;SDS011;25402;42.004;23.088;2022-07-09T02:36:40;12.05;;;5.63;;
39728;SDS011;25402;42.004;23.088;2022-07-09T02:39:07;12.00;;;6.22;;
39728;SDS011;25402;42.004;23.088;2022-07-09T02:41:33;18.67;;;6.10;;
39728;SDS011;25402;42.004;23.088;2022-07-09T02:43:59;12.88;;;5.47;;
39728;SDS011;25402;42.004;23.088;2022-07-09T02:46:27;7.22;;;4.53;;
39728;SDS011;25402;42.004;23.088;2022-07-09T02:48:53;12.50;;;4.78;;
39728;SDS011;25402;42.004;23.088;2022-07-09T02:51:19;11.77;;;5.35;;
39728;SDS011;25402;42.004;23.088;2022-07-09T02:53:46;11.57;;;5.45;;
39728;SDS011;25402;42.004;23.088;2022-07-09T02:56:12;13.50;;;5.18;;
39728;SDS011;25402;42.004;23.088;2022-07-09T02:58:39;12.13;;;5.70;;
39728;SDS011;25402;42.004;23.088;2022-07-09T03:01:05;8.48;;;5.18;;
39728;SDS011;25402;42.004;23.088;2022-07-09T03:03:32;9.35;;;5.50;;
39728;SDS011;25402;42.004;23.088;2022-07-09T03:06:00;13.38;;;5.07;;
39728;SDS011;25402;42.004;23.088;2022-07-09T03:08:27;8.23;;;4.55;;
39728;SDS011;25402;42.004;23.088;2022-07-09T03:10:54;13.43;;;4.72;;
39728;SDS011;25402;42.004;23.088;2022-07-09T03:13:20;7.78;;;4.50;;
39728;SDS011;25402;42.004;23.088;2022-07-09T03:15:47;9.55;;;5.20;;
39728;SDS011;25402;42.004;23.088;2022-07-09T03:18:14;8.32;;;5.13;;
39728;SDS011;25402;42.004;23.088;2022-07-09T03:20:41;5.85;;;4.93;;
39728;SDS011;25402;42.004;23.088;2022-07-09T03:23:08;6.88;;;4.85;;
39728;SDS011;25402;42.004;23.088;2022-07-09T03:25:34;7.85;;;5.55;;
39728;SDS011;25402;42.004;23.088;2022-07-09T03:28:00;13.30;;;6.40;;
39728;SDS011;25402;42.004;23.088;2022-07-09T03:30:27;9.48;;;5.70;;
39728;SDS011;25402;42.004;23.088;2022-07-09T03:32:53;10.60;;;6.88;;
39728;SDS011;25402;42.004;23.088;2022-07-09T03:35:20;6.88;;;5.28;;
39728;SDS011;25402;42.004;23.088;2022-07-09T03:37:47;11.65;;;5.03;;
39728;SDS011;25402;42.004;23.088;2022-07-09T03:40:13;12.10;;;5.57;;
39728;SDS011;25402;42.004;23.088;2022-07-09T03:42:40;9.50;;;4.78;;
39728;SDS011;25402;42.004;23.088;2022-07-09T03:45:07;8.65;;;6.43;;
39728;SDS011;25402;42.004;23.088;2022-07-09T03:47:33;7.10;;;4.30;;
39728;SDS011;25402;42.004;23.088;2022-07-09T03:50:00;7.80;;;4.60;;
39728;SDS011;25402;42.004;23.088;2022-07-09T03:52:26;9.45;;;4.97;;
39728;SDS011;25402;42.004;23.088;2022-07-09T03:54:53;8.32;;;5.18;;
39728;SDS011;25402;42.004;23.088;2022-07-09T03:57:20;10.93;;;6.15;;
39728;SDS011;25402;42.004;23.088;2022-07-09T03:59:46;11.15;;;6.95;;
39728;SDS011;25402;42.004;23.088;2022-07-09T04:02:13;9.27;;;6.22;;
39728;SDS011;25402;42.004;23.088;2022-07-09T04:04:40;10.48;;;6.95;;
39728;SDS011;25402;42.004;23.088;2022-07-09T04:07:06;7.22;;;5.50;;
39728;SDS011;25402;42.004;23.088;2022-07-09T04:09:33;11.60;;;4.85;;
39728;SDS011;25402;42.004;23.088;2022-07-09T04:12:00;6.13;;;3.53;;
39728;SDS011;25402;42.004;23.088;2022-07-09T04:14:26;6.72;;;3.80;;
39728;SDS011;25402;42.004;23.088;2022-07-09T04:16:53;6.43;;;3.50;;
39728;SDS011;25402;42.004;23.088;2022-07-09T04:19:19;12.10;;;3.55;;
39728;SDS011;25402;42.004;23.088;2022-07-09T04:21:46;9.18;;;3.42;;
39728;SDS011;25402;42.004;23.088;2022-07-09T04:24:12;7.10;;;3.50;;
39728;SDS011;25402;42.004;23.088;2022-07-09T04:26:40;8.65;;;3.92;;
39728;SDS011;25402;42.004;23.088;2022-07-09T04:29:08;6.72;;;3.65;;
39728;SDS011;25402;42.004;23.088;2022-07-09T04:31:35;6.35;;;3.97;;
39728;SDS011;25402;42.004;23.088;2022-07-09T04:34:02;12.57;;;4.22;;
39728;SDS011;25402;42.004;23.088;2022-07-09T04:36:28;7.05;;;4.25;;
39728;SDS011;25402;42.004;23.088;2022-07-09T04:38:56;8.88;;;4.40;;
39728;SDS011;25402;42.004;23.088;2022-07-09T04:41:23;9.73;;;4.22;;
39728;SDS011;25402;42.004;23.088;2022-07-09T04:43:49;14.30;;;4.85;;
39728;SDS011;25402;42.004;23.088;2022-07-09T04:46:16;9.13;;;4.30;;
39728;SDS011;25402;42.004;23.088;2022-07-09T04:48:43;11.18;;;4.43;;
39728;SDS011;25402;42.004;23.088;2022-07-09T04:51:10;5.88;;;4.40;;
39728;SDS011;25402;42.004;23.088;2022-07-09T04:53:36;5.78;;;4.15;;
39728;SDS011;25402;42.004;23.088;2022-07-09T04:56:03;8.45;;;4.07;;
39728;SDS011;25402;42.004;23.088;2022-07-09T04:58:29;11.90;;;3.78;;
39728;SDS011;25402;42.004;23.088;2022-07-09T05:00:56;9.65;;;4.05;;
39728;SDS011;25402;42.004;23.088;2022-07-09T05:03:23;10.05;;;3.90;;
39728;SDS011;25402;42.004;23.088;2022-07-09T05:05:50;11.70;;;3.55;;
39728;SDS011;25402;42.004;23.088;2022-07-09T05:08:16;6.78;;;3.40;;
39728;SDS011;25402;42.004;23.088;2022-07-09T05:10:43;12.27;;;3.72;;
39728;SDS011;25402;42.004;23.088;2022-07-09T05:13:09;11.00;;;3.95;;
39728;SDS011;25402;42.004;23.088;2022-07-09T05:15:36;9.13;;;4.00;;
39728;SDS011;25402;42.004;23.088;2022-07-09T05:18:02;14.38;;;3.78;;
39728;SDS011;25402;42.004;23.088;2022-07-09T05:20:30;10.45;;;3.35;;
39728;SDS011;25402;42.004;23.088;2022-07-09T05:22:56;18.00;;;3.50;;
39728;SDS011;25402;42.004;23.088;2022-07-09T05:25:22;15.10;;;3.42;;
39728;SDS011;25402;42.004;23.088;2022-07-09T05:27:49;16.33;;;4.05;;
39728;SDS011;25402;42.004;23.088;2022-07-09T05:30:15;22.33;;;4.07;;
39728;SDS011;25402;42.004;23.088;2022-07-09T05:32:43;14.05;;;3.63;;
39728;SDS011;25402;42.004;23.088;2022-07-09T05:35:09;6.72;;;3.20;;
39728;SDS011;25402;42.004;23.088;2022-07-09T05:37:40;8.57;;;3.20;;
39728;SDS011;25402;42.004;23.088;2022-07-09T05:40:08;10.95;;;3.60;;
39728;SDS011;25402;42.004;23.088;2022-07-09T05:42:35;17.13;;;3.97;;
39728;SDS011;25402;42.004;23.088;2022-07-09T05:45:02;11.63;;;3.58;;
39728;SDS011;25402;42.004;23.088;2022-07-09T05:47:29;13.05;;;3.40;;
39728;SDS011;25402;42.004;23.088;2022-07-09T05:49:55;7.30;;;3.53;;
39728;SDS011;25402;42.004;23.088;2022-07-09T05:52:21;7.70;;;3.40;;
39728;SDS011;25402;42.004;23.088;2022-07-09T05:54:49;6.68;;;3.40;;
39728;SDS011;25402;42.004;23.088;2022-07-09T05:57:15;6.32;;;3.20;;
39728;SDS011;25402;42.004;23.088;2022-07-09T05:59:41;7.38;;;3.80;;
39728;SDS011;25402;42.004;23.088;2022-07-09T06:02:08;8.38;;;3.55;;
39728;SDS011;25402;42.004;23.088;2022-07-09T06:04:34;16.42;;;3.55;;
39728;SDS011;25402;42.004;23.088;2022-07-09T06:07:00;9.40;;;3.50;;
39728;SDS011;25402;42.004;23.088;2022-07-09T06:09:27;8.02;;;3.10;;
39728;SDS011;25402;42.004;23.088;2022-07-09T06:11:54;10.32;;;3.05;;
39728;SDS011;25402;42.004;23.088;2022-07-09T06:14:21;5.85;;;3.42;;
39728;SDS011;25402;42.004;23.088;2022-07-09T06:16:47;10.10;;;3.33;;
39728;SDS011;25402;42.004;23.088;2022-07-09T06:19:13;18.00;;;3.17;;
39728;SDS011;25402;42.004;23.088;2022-07-09T06:21:40;7.43;;;3.08;;
39728;SDS011;25402;42.004;23.088;2022-07-09T06:24:06;13.50;;;3.17;;
39728;SDS011;25402;42.004;23.088;2022-07-09T06:26:33;12.43;;;3.55;;
39728;SDS011;25402;42.004;23.088;2022-07-09T06:29:00;6.80;;;3.03;;
39728;SDS011;25402;42.004;23.088;2022-07-09T06:31:26;8.20;;;3.15;;
39728;SDS011;25402;42.004;23.088;2022-07-09T06:33:53;5.88;;;3.38;;
39728;SDS011;25402;42.004;23.088;2022-07-09T06:36:19;9.30;;;3.75;;
39728;SDS011;25402;42.004;23.088;2022-07-09T06:38:46;9.30;;;4.20;;
39728;SDS011;25402;42.004;23.088;2022-07-09T06:41:32;7.75;;;3.90;;
39728;SDS011;25402;42.004;23.088;2022-07-09T06:43:58;5.53;;;3.83;;
39728;SDS011;25402;42.004;23.088;2022-07-09T06:46:26;7.93;;;3.38;;
39728;SDS011;25402;42.004;23.088;2022-07-09T06:48:52;7.20;;;2.90;;
39728;SDS011;25402;42.004;23.088;2022-07-09T06:51:19;6.82;;;3.10;;
39728;SDS011;25402;42.004;23.088;2022-07-09T06:53:45;5.28;;;2.75;;
39728;SDS011;25402;42.004;23.088;2022-07-09T06:56:11;5.75;;;3.08;;
39728;SDS011;25402;42.004;23.088;2022-07-09T06:58:38;7.55;;;3.25;;
39728;SDS011;25402;42.004;23.088;2022-07-09T07:01:05;6.97;;;2.20;;
39728;SDS011;25402;42.004;23.088;2022-07-09T07:03:31;3.55;;;2.60;;
39728;SDS011;25402;42.004;23.088;2022-07-09T07:05:58;3.47;;;2.60;;
39728;SDS011;25402;42.004;23.088;2022-07-09T07:08:24;3.83;;;2.50;;
39728;SDS011;25402;42.004;23.088;2022-07-09T07:10:50;8.15;;;2.53;;
39728;SDS011;25402;42.004;23.088;2022-07-09T07:13:17;4.68;;;2.30;;
39728;SDS011;25402;42.004;23.088;2022-07-09T07:15:43;9.25;;;2.35;;
39728;SDS011;25402;42.004;23.088;2022-07-09T07:18:15;3.35;;;2.00;;
39728;SDS011;25402;42.004;23.088;2022-07-09T07:20:41;3.65;;;2.40;;
39728;SDS011;25402;42.004;23.088;2022-07-09T07:23:08;10.80;;;2.22;;
39728;SDS011;25402;42.004;23.088;2022-07-09T07:25:34;9.63;;;1.90;;
39728;SDS011;25402;42.004;23.088;2022-07-09T07:28:01;6.60;;;2.25;;
39728;SDS011;25402;42.004;23.088;2022-07-09T07:30:29;8.93;;;2.50;;
39728;SDS011;25402;42.004;23.088;2022-07-09T07:32:58;4.32;;;1.90;;
39728;SDS011;25402;42.004;23.088;2022-07-09T07:35:25;4.03;;;1.85;;
39728;SDS011;25402;42.004;23.088;2022-07-09T07:37:51;6.70;;;2.03;;
39728;SDS011;25402;42.004;23.088;2022-07-09T07:40:18;10.60;;;1.85;;
39728;SDS011;25402;42.004;23.088;2022-07-09T07:42:44;4.68;;;1.90;;
39728;SDS011;25402;42.004;23.088;2022-07-09T07:45:11;4.28;;;1.65;;
39728;SDS011;25402;42.004;23.088;2022-07-09T07:47:37;9.30;;;2.00;;
39728;SDS011;25402;42.004;23.088;2022-07-09T07:50:04;4.82;;;1.70;;
39728;SDS011;25402;42.004;23.088;2022-07-09T07:52:32;5.10;;;2.08;;
39728;SDS011;25402;42.004;23.088;2022-07-09T07:54:59;3.45;;;2.08;;
39728;SDS011;25402;42.004;23.088;2022-07-09T07:57:25;5.07;;;1.95;;
39728;SDS011;25402;42.004;23.088;2022-07-09T07:59:52;3.10;;;2.03;;
39728;SDS011;25402;42.004;23.088;2022-07-09T08:02:18;4.30;;;2.13;;
39728;SDS011;25402;42.004;23.088;2022-07-09T08:04:45;2.85;;;2.10;;
39728;SDS011;25402;42.004;23.088;2022-07-09T08:07:11;3.72;;;1.80;;
39728;SDS011;25402;42.004;23.088;2022-07-09T08:09:38;6.97;;;2.60;;
39728;SDS011;25402;42.004;23.088;2022-07-09T08:12:05;5.70;;;2.30;;
39728;SDS011;25402;42.004;23.088;2022-07-09T08:14:32;4.07;;;2.20;;
39728;SDS011;25402;42.004;23.088;2022-07-09T08:16:59;11.55;;;2.85;;
39728;SDS011;25402;42.004;23.088;2022-07-09T08:19:25;6.93;;;2.10;;
39728;SDS011;25402;42.004;23.088;2022-07-09T08:21:52;4.72;;;2.20;;
39728;SDS011;25402;42.004;23.088;2022-07-09T08:24:18;6.05;;;2.10;;
39728;SDS011;25402;42.004;23.088;2022-07-09T08:26:45;6.05;;;2.40;;
39728;SDS011;25402;42.004;23.088;2022-07-09T08:29:12;3.50;;;2.30;;
39728;SDS011;25402;42.004;23.088;2022-07-09T08:31:38;5.07;;;2.80;;
39728;SDS011;25402;42.004;23.088;2022-07-09T08:34:04;3.80;;;2.60;;
39728;SDS011;25402;42.004;23.088;2022-07-09T08:36:31;5.18;;;2.50;;
39728;SDS011;25402;42.004;23.088;2022-07-09T08:38:58;7.38;;;2.63;;
39728;SDS011;25402;42.004;23.088;2022-07-09T08:41:25;7.25;;;3.10;;
39728;SDS011;25402;42.004;23.088;2022-07-09T08:43:52;4.93;;;2.53;;
39728;SDS011;25402;42.004;23.088;2022-07-09T08:46:20;3.95;;;2.30;;
39728;SDS011;25402;42.004;23.088;2022-07-09T08:48:47;13.32;;;2.88;;
39728;SDS011;25402;42.004;23.088;2022-07-09T08:51:15;4.20;;;2.40;;
39728;SDS011;25402;42.004;23.088;2022-07-09T08:53:43;29.05;;;2.90;;
39728;SDS011;25402;42.004;23.088;2022-07-09T08:56:11;4.50;;;2.50;;
39728;SDS011;25402;42.004;23.088;2022-07-09T08:58:37;9.77;;;2.40;;
39728;SDS011;25402;42.004;23.088;2022-07-09T09:01:05;6.72;;;2.33;;
39728;SDS011;25402;42.004;23.088;2022-07-09T09:03:32;5.25;;;2.67;;
39728;SDS011;25402;42.004;23.088;2022-07-09T09:06:02;3.60;;;2.47;;
39728;SDS011;25402;42.004;23.088;2022-07-09T09:08:33;7.63;;;2.40;;
39728;SDS011;25402;42.004;23.088;2022-07-09T09:11:01;6.20;;;2.25;;
39728;SDS011;25402;42.004;23.088;2022-07-09T09:13:28;3.90;;;2.38;;
39728;SDS011;25402;42.004;23.088;2022-07-09T09:16:05;3.15;;;2.08;;
39728;SDS011;25402;42.004;23.088;2022-07-09T09:18:34;5.18;;;2.40;;
39728;SDS011;25402;42.004;23.088;2022-07-09T09:21:02;7.00;;;2.67;;
39728;SDS011;25402;42.004;23.088;2022-07-09T09:23:38;6.22;;;2.50;;
39728;SDS011;25402;42.004;23.088;2022-07-09T09:26:09;9.27;;;2.40;;
39728;SDS011;25402;42.004;23.088;2022-07-09T09:31:21;5.32;;;2.40;;
39728;SDS011;25402;42.004;23.088;2022-07-09T09:33:49;4.70;;;2.40;;
39728;SDS011;25402;42.004;23.088;2022-07-09T09:36:28;4.88;;;2.05;;
39728;SDS011;25402;42.004;23.088;2022-07-09T09:39:09;5.10;;;2.30;;
39728;SDS011;25402;42.004;23.088;2022-07-09T09:41:36;3.42;;;2.15;;
39728;SDS011;25402;42.004;23.088;2022-07-09T09:44:04;6.50;;;2.40;;
39728;SDS011;25402;42.004;23.088;2022-07-09T09:46:35;4.70;;;2.28;;
39728;SDS011;25402;42.004;23.088;2022-07-09T09:49:02;7.10;;;2.22;;
39728;SDS011;25402;42.004;23.088;2022-07-09T09:51:34;10.68;;;2.65;;
39728;SDS011;25402;42.004;23.088;2022-07-09T09:54:02;8.02;;;2.80;;
39728;SDS011;25402;42.004;23.088;2022-07-09T09:56:30;6.85;;;2.50;;
39728;SDS011;25402;42.004;23.088;2022-07-09T09:58:56;5.75;;;2.42;;
39728;SDS011;25402;42.004;23.088;2022-07-09T10:01:24;3.65;;;2.30;;
39728;SDS011;25402;42.004;23.088;2022-07-09T10:03:51;6.90;;;2.20;;
39728;SDS011;25402;42.004;23.088;2022-07-09T10:06:19;2.75;;;2.30;;
39728;SDS011;25402;42.004;23.088;2022-07-09T10:08:45;3.50;;;2.40;;
39728;SDS011;25402;42.004;23.088;2022-07-09T10:11:12;3.05;;;2.40;;
39728;SDS011;25402;42.004;23.088;2022-07-09T10:13:48;7.32;;;2.55;;
39728;SDS011;25402;42.004;23.088;2022-07-09T10:16:15;4.97;;;2.40;;
39728;SDS011;25402;42.004;23.088;2022-07-09T10:18:49;11.85;;;2.58;;
39728;SDS011;25402;42.004;23.088;2022-07-09T10:21:17;4.10;;;2.60;;
39728;SDS011;25402;42.004;23.088;2022-07-09T10:23:48;2.83;;;2.30;;
39728;SDS011;25402;42.004;23.088;2022-07-09T10:26:15;4.70;;;2.30;;
39728;SDS011;25402;42.004;23.088;2022-07-09T10:28:42;2.75;;;2.10;;
39728;SDS011;25402;42.004;23.088;2022-07-09T10:31:08;5.38;;;2.42;;
39728;SDS011;25402;42.004;23.088;2022-07-09T10:33:35;4.40;;;2.45;;
39728;SDS011;25402;42.004;23.088;2022-07-09T10:36:09;8.35;;;2.45;;
39728;SDS011;25402;42.004;23.088;2022-07-09T10:38:37;7.47;;;2.35;;
39728;SDS011;25402;42.004;23.088;2022-07-09T10:41:04;4.47;;;2.40;;
39728;SDS011;25402;42.004;23.088;2022-07-09T10:43:40;2.92;;;2.60;;
39728;SDS011;25402;42.004;23.088;2022-07-09T10:46:10;11.95;;;2.90;;
39728;SDS011;25402;42.004;23.088;2022-07-09T10:48:37;10.27;;;2.47;;
39728;SDS011;25402;42.004;23.088;2022-07-09T10:51:03;12.95;;;2.63;;
39728;SDS011;25402;42.004;23.088;2022-07-09T10:53:30;9.20;;;3.08;;
39728;SDS011;25402;42.004;23.088;2022-07-09T10:55:57;3.65;;;2.60;;
39728;SDS011;25402;42.004;23.088;2022-07-09T10:58:25;5.63;;;2.20;;
39728;SDS011;25402;42.004;23.088;2022-07-09T11:00:54;9.35;;;2.55;;
39728;SDS011;25402;42.004;23.088;2022-07-09T11:03:24;9.23;;;2.15;;
39728;SDS011;25402;42.004;23.088;2022-07-09T11:05:51;4.82;;;2.50;;
39728;SDS011;25402;42.004;23.088;2022-07-09T11:08:18;6.68;;;2.40;;
39728;SDS011;25402;42.004;23.088;2022-07-09T11:10:44;4.82;;;1.92;;
39728;SDS011;25402;42.004;23.088;2022-07-09T11:13:11;4.75;;;1.90;;
39728;SDS011;25402;42.004;23.088;2022-07-09T11:15:38;3.10;;;2.17;;
39728;SDS011;25402;42.004;23.088;2022-07-09T11:18:07;2.20;;;2.00;;
39728;SDS011;25402;42.004;23.088;2022-07-09T11:20:36;3.38;;;2.00;;
39728;SDS011;25402;42.004;23.088;2022-07-09T11:23:04;3.63;;;2.13;;
39728;SDS011;25402;42.004;23.088;2022-07-09T11:25:30;4.85;;;2.15;;
39728;SDS011;25402;42.004;23.088;2022-07-09T11:27:57;6.82;;;2.20;;
39728;SDS011;25402;42.004;23.088;2022-07-09T11:30:25;6.40;;;2.00;;
39728;SDS011;25402;42.004;23.088;2022-07-09T11:32:54;4.82;;;1.90;;
39728;SDS011;25402;42.004;23.088;2022-07-09T11:35:27;2.15;;;1.55;;
39728;SDS011;25402;42.004;23.088;2022-07-09T11:40:20;4.13;;;1.98;;
39728;SDS011;25402;42.004;23.088;2022-07-09T11:42:46;4.32;;;1.70;;
39728;SDS011;25402;42.004;23.088;2022-07-09T11:45:14;8.65;;;1.80;;
39728;SDS011;25402;42.004;23.088;2022-07-09T11:47:41;2.28;;;1.42;;
39728;SDS011;25402;42.004;23.088;2022-07-09T11:50:11;1.40;;;1.30;;
39728;SDS011;25402;42.004;23.088;2022-07-09T11:52:42;6.57;;;1.30;;
39728;SDS011;25402;42.004;23.088;2022-07-09T11:55:11;2.25;;;1.33;;
39728;SDS011;25402;42.004;23.088;2022-07-09T11:57:38;1.88;;;1.40;;
39728;SDS011;25402;42.004;23.088;2022-07-09T12:00:05;5.72;;;1.30;;
39728;SDS011;25402;42.004;23.088;2022-07-09T12:02:34;4.32;;;1.10;;
39728;SDS011;25402;42.004;23.088;2022-07-09T12:05:03;1.10;;;1.00;;
39728;SDS011;25402;42.004;23.088;2022-07-09T12:07:31;8.23;;;1.02;;
39728;SDS011;25402;42.004;23.088;2022-07-09T12:09:58;6.20;;;1.10;;
39728;SDS011;25402;42.004;23.088;2022-07-09T12:12:24;2.45;;;1.13;;
39728;SDS011;25402;42.004;23.088;2022-07-09T12:14:51;1.60;;;1.10;;
39728;SDS011;25402;42.004;23.088;2022-07-09T12:17:18;2.22;;;1.00;;
39728;SDS011;25402;42.004;23.088;2022-07-09T12:19:45;1.17;;;1.08;;
39728;SDS011;25402;42.004;23.088;2022-07-09T12:22:12;8.65;;;1.20;;
39728;SDS011;25402;42.004;23.088;2022-07-09T12:24:38;3.75;;;1.00;;
39728;SDS011;25402;42.004;23.088;2022-07-09T12:27:04;2.25;;;1.10;;
39728;SDS011;25402;42.004;23.088;2022-07-09T12:29:31;1.75;;;1.00;;
39728;SDS011;25402;42.004;23.088;2022-07-09T12:31:57;8.57;;;1.15;;
39728;SDS011;25402;42.004;23.088;2022-07-09T12:34:24;1.58;;;0.90;;
39728;SDS011;25402;42.004;23.088;2022-07-09T12:36:50;1.70;;;0.90;;
39728;SDS011;25402;42.004;23.088;2022-07-09T12:39:17;4.70;;;1.20;;
39728;SDS011;25402;42.004;23.088;2022-07-09T12:41:44;5.38;;;0.82;;
39728;SDS011;25402;42.004;23.088;2022-07-09T12:44:10;6.18;;;1.10;;
39728;SDS011;25402;42.004;23.088;2022-07-09T12:46:36;2.97;;;1.50;;
39728;SDS011;25402;42.004;23.088;2022-07-09T12:49:03;2.90;;;1.25;;
39728;SDS011;25402;42.004;23.088;2022-07-09T12:51:29;9.43;;;1.33;;
39728;SDS011;25402;42.004;23.088;2022-07-09T12:53:56;5.78;;;1.52;;
39728;SDS011;25402;42.004;23.088;2022-07-09T12:56:23;4.82;;;1.70;;
39728;SDS011;25402;42.004;23.088;2022-07-09T12:58:50;11.93;;;2.00;;
39728;SDS011;25402;42.004;23.088;2022-07-09T13:01:16;7.00;;;1.90;;
39728;SDS011;25402;42.004;23.088;2022-07-09T13:03:43;4.70;;;1.65;;
39728;SDS011;25402;42.004;23.088;2022-07-09T13:06:09;10.75;;;2.03;;
39728;SDS011;25402;42.004;23.088;2022-07-09T13:08:50;5.50;;;1.67;;
39728;SDS011;25402;42.004;23.088;2022-07-09T13:11:16;7.18;;;1.77;;
39728;SDS011;25402;42.004;23.088;2022-07-09T13:13:44;3.30;;;1.40;;
39728;SDS011;25402;42.004;23.088;2022-07-09T13:16:10;5.90;;;1.45;;
39728;SDS011;25402;42.004;23.088;2022-07-09T13:18:36;1.67;;;1.20;;
39728;SDS011;25402;42.004;23.088;2022-07-09T13:21:03;4.53;;;1.10;;
39728;SDS011;25402;42.004;23.088;2022-07-09T13:23:30;5.10;;;1.30;;
39728;SDS011;25402;42.004;23.088;2022-07-09T13:25:57;6.05;;;1.25;;
39728;SDS011;25402;42.004;23.088;2022-07-09T13:28:24;5.13;;;1.50;;
39728;SDS011;25402;42.004;23.088;2022-07-09T13:30:51;3.70;;;1.65;;
39728;SDS011;25402;42.004;23.088;2022-07-09T13:33:17;9.63;;;1.85;;
39728;SDS011;25402;42.004;23.088;2022-07-09T13:35:43;5.63;;;1.80;;
39728;SDS011;25402;42.004;23.088;2022-07-09T13:38:10;11.50;;;1.77;;
39728;SDS011;25402;42.004;23.088;2022-07-09T13:40:36;2.42;;;1.40;;
39728;SDS011;25402;42.004;23.088;2022-07-09T13:43:03;3.03;;;1.30;;
39728;SDS011;25402;42.004;23.088;2022-07-09T13:45:29;3.58;;;1.50;;
39728;SDS011;25402;42.004;23.088;2022-07-09T13:47:56;5.07;;;1.23;;
39728;SDS011;25402;42.004;23.088;2022-07-09T13:50:23;2.50;;;1.30;;
39728;SDS011;25402;42.004;23.088;2022-07-09T13:52:50;3.35;;;1.38;;
39728;SDS011;25402;42.004;23.088;2022-07-09T13:55:16;2.65;;;1.27;;
39728;SDS011;25402;42.004;23.088;2022-07-09T13:57:43;6.30;;;1.40;;
39728;SDS011;25402;42.004;23.088;2022-07-09T14:00:10;3.58;;;1.40;;
39728;SDS011;25402;42.004;23.088;2022-07-09T14:02:36;4.60;;;1.60;;
39728;SDS011;25402;42.004;23.088;2022-07-09T14:05:04;2.13;;;1.48;;
39728;SDS011;25402;42.004;23.088;2022-07-09T14:07:31;4.47;;;1.20;;
39728;SDS011;25402;42.004;23.088;2022-07-09T14:09:57;3.03;;;1.48;;
39728;SDS011;25402;42.004;23.088;2022-07-09T14:12:24;4.85;;;1.33;;
39728;SDS011;25402;42.004;23.088;2022-07-09T14:14:50;2.65;;;1.50;;
39728;SDS011;25402;42.004;23.088;2022-07-09T14:17:16;5.10;;;1.50;;
39728;SDS011;25402;42.004;23.088;2022-07-09T14:19:43;3.83;;;1.50;;
39728;SDS011;25402;42.004;23.088;2022-07-09T14:22:10;6.90;;;1.38;;
39728;SDS011;25402;42.004;23.088;2022-07-09T14:24:37;3.60;;;1.35;;
39728;SDS011;25402;42.004;23.088;2022-07-09T14:27:03;2.00;;;1.30;;
39728;SDS011;25402;42.004;23.088;2022-07-09T14:29:30;1.30;;;1.20;;
39728;SDS011;25402;42.004;23.088;2022-07-09T14:31:56;3.63;;;1.50;;
39728;SDS011;25402;42.004;23.088;2022-07-09T14:34:25;4.25;;;1.58;;